createdAt,value
2019-01-19T00:03:44.987Z,3.80
2019-01-19T00:08:00.968Z,3.90
2019-01-19T00:12:20.090Z,4.00
2019-01-19T00:16:43.080Z,4.20
2019-01-19T00:21:07.621Z,4.10
2019-01-19T00:25:55.240Z,4.00
2019-01-19T00:30:08.036Z,4.00
2019-01-19T00:34:42.868Z,4.10
2019-01-19T00:39:07.099Z,4.10
2019-01-19T00:43:13.905Z,4.20
2019-01-19T00:47:43.606Z,4.30
2019-01-19T00:52:12.974Z,4.40
2019-01-19T00:56:50.180Z,4.40
2019-01-19T01:01:00.464Z,4.50
2019-01-19T01:05:11.354Z,4.60
2019-01-19T01:09:42.205Z,4.70
2019-01-19T01:14:09.997Z,4.90
2019-01-19T01:18:48.194Z,4.90
2019-01-19T01:23:14.773Z,4.80
2019-01-19T01:27:25.116Z,4.30
2019-01-19T01:31:38.158Z,4.30
2019-01-19T01:36:12.241Z,4.40
2019-01-19T01:40:37.349Z,4.30
2019-01-19T01:45:02.264Z,4.10
2019-01-19T01:49:12.544Z,4.30
2019-01-19T01:53:37.643Z,4.20
2019-01-19T01:57:48.026Z,4.10
2019-01-19T02:02:13.244Z,4.30
2019-01-19T02:06:37.912Z,4.50
2019-01-19T02:11:25.430Z,4.60
2019-01-19T02:15:47.805Z,4.60
2019-01-19T02:20:21.665Z,4.70
2019-01-19T02:24:52.182Z,4.70
2019-01-19T02:29:36.695Z,4.60
2019-01-19T02:34:01.663Z,4.30
2019-01-19T02:38:32.836Z,4.40
2019-01-19T02:43:02.351Z,4.40
2019-01-19T02:47:27.000Z,4.30
2019-01-19T02:51:48.816Z,4.30
2019-01-19T02:56:07.975Z,4.30
2019-01-19T03:00:46.921Z,4.30
2019-01-19T03:05:02.907Z,4.30
2019-01-19T03:09:35.357Z,4.20
2019-01-19T03:13:54.146Z,4.00
2019-01-19T03:18:28.451Z,4.10
2019-01-19T03:22:41.557Z,4.30
2019-01-19T03:27:14.136Z,4.40
2019-01-19T03:31:40.723Z,4.40
2019-01-19T03:36:04.501Z,4.60
2019-01-19T03:40:38.119Z,4.40
2019-01-19T03:45:23.943Z,3.90
2019-01-19T03:49:39.628Z,3.70
2019-01-19T03:54:13.346Z,3.70
2019-01-19T03:58:28.561Z,4.10
2019-01-19T04:03:02.641Z,4.20
2019-01-19T04:07:24.539Z,4.20
2019-01-19T04:12:11.969Z,4.00
2019-01-19T04:16:42.926Z,3.80
2019-01-19T04:21:19.281Z,3.90
2019-01-19T04:25:29.911Z,4.00
2019-01-19T04:29:35.578Z,4.10
2019-01-19T04:33:41.341Z,4.40
2019-01-19T04:37:47.013Z,4.60
2019-01-19T04:41:52.699Z,4.60
2019-01-19T04:45:58.415Z,4.50
2019-01-19T04:50:04.855Z,4.50
2019-01-19T04:54:10.611Z,4.40
2019-01-19T04:58:16.296Z,4.50
2019-01-19T05:02:22.012Z,4.50
2019-01-19T05:06:30.576Z,4.30
2019-01-19T05:10:35.648Z,4.40
2019-01-19T05:14:41.395Z,4.50
2019-01-19T05:18:47.091Z,4.60
2019-01-19T05:22:52.790Z,4.40
2019-01-19T05:26:58.457Z,4.20
2019-01-19T05:31:04.378Z,4.40
2019-01-19T05:35:10.219Z,4.40
2019-01-19T05:39:15.907Z,4.20
2019-01-19T05:43:21.613Z,4.10
2019-01-19T05:47:27.271Z,4.30
2019-01-19T05:51:32.951Z,4.10
2019-01-19T05:55:38.750Z,3.70
2019-01-19T05:59:44.428Z,3.80
2019-01-19T06:03:50.091Z,4.00
2019-01-19T06:07:55.812Z,4.20
2019-01-19T06:12:03.218Z,4.00
2019-01-19T06:16:08.906Z,4.20
2019-01-19T06:20:17.202Z,4.20
2019-01-19T06:24:22.878Z,4.30
2019-01-19T06:28:28.562Z,4.40
2019-01-19T06:32:34.255Z,4.50
2019-01-19T06:36:39.987Z,4.60
2019-01-19T06:40:45.702Z,4.40
2019-01-19T06:44:51.370Z,4.30
2019-01-19T06:48:57.056Z,4.40
2019-01-19T06:53:02.744Z,4.50
2019-01-19T06:57:08.507Z,4.50
2019-01-19T07:01:14.172Z,4.10
2019-01-19T07:05:19.999Z,3.90
2019-01-19T07:09:25.687Z,4.20
2019-01-19T07:13:31.365Z,4.20
2019-01-19T07:17:37.031Z,4.20
2019-01-19T07:21:42.794Z,4.00
2019-01-19T07:25:48.531Z,3.80
2019-01-19T07:29:54.211Z,3.90
2019-01-19T07:33:59.902Z,4.00
2019-01-19T07:38:05.569Z,3.70
2019-01-19T07:42:11.255Z,3.90
2019-01-19T07:46:17.378Z,3.90
2019-01-19T07:50:23.065Z,4.10
2019-01-19T07:54:28.737Z,4.30
2019-01-19T07:58:34.400Z,4.40
2019-01-19T08:02:40.235Z,4.40
2019-01-19T08:06:45.973Z,4.30
2019-01-19T08:10:51.740Z,4.20
2019-01-19T08:14:57.408Z,4.00
2019-01-19T08:19:03.147Z,4.30
2019-01-19T08:23:08.846Z,4.50
2019-01-19T08:27:14.548Z,4.30
2019-01-19T08:31:20.239Z,4.20
2019-01-19T08:35:26.012Z,4.30
2019-01-19T08:39:31.766Z,4.50
2019-01-19T08:43:39.155Z,4.80
2019-01-19T08:47:44.853Z,4.60
2019-01-19T08:51:50.556Z,4.80
2019-01-19T08:55:56.293Z,5.10
2019-01-19T09:00:01.949Z,5.80
2019-01-19T09:04:07.700Z,6.10
2019-01-19T09:08:13.390Z,7.20
2019-01-19T09:12:19.211Z,8.80
2019-01-19T09:16:24.948Z,6.20
2019-01-19T09:20:30.851Z,4.70
2019-01-19T09:24:36.537Z,4.10
2019-01-19T09:28:42.239Z,3.50
2019-01-19T09:32:48.197Z,3.20
2019-01-19T09:36:53.930Z,3.40
2019-01-19T09:40:59.736Z,2.60
2019-01-19T09:45:10.770Z,2.40
2019-01-19T09:49:16.655Z,2.80
2019-01-19T09:53:22.354Z,2.30
2019-01-19T09:57:28.088Z,2.80
2019-01-19T10:10:21.057Z,3.90
2019-01-19T10:14:26.777Z,4.00
2019-01-19T10:18:32.702Z,4.00
2019-01-19T10:22:39.357Z,3.40
2019-01-19T10:26:45.104Z,3.40
2019-01-19T10:30:51.577Z,3.50
2019-01-19T10:35:00.018Z,3.00
2019-01-19T10:39:08.949Z,2.80
2019-01-19T10:43:14.628Z,2.60
2019-01-19T10:47:20.388Z,2.40
2019-01-19T10:51:26.210Z,2.60
2019-01-19T10:55:31.975Z,2.40
2019-01-19T10:59:37.646Z,2.50
2019-01-19T11:03:43.404Z,2.70
2019-01-19T11:07:49.808Z,2.60
2019-01-19T11:11:55.566Z,2.60
2019-01-19T11:16:01.349Z,2.60
2019-01-19T11:20:11.822Z,2.50
2019-01-19T11:24:17.519Z,2.30
2019-01-19T11:28:23.226Z,2.10
2019-01-19T11:32:28.924Z,2.00
2019-01-19T11:36:34.667Z,1.90
2019-01-19T11:40:40.415Z,1.70
2019-01-19T11:44:46.111Z,1.90
2019-01-19T11:48:51.807Z,2.00
2019-01-19T11:52:57.481Z,2.30
2019-01-19T11:57:03.235Z,2.00
2019-01-19T12:01:08.963Z,2.30
2019-01-19T12:05:14.965Z,1.90
2019-01-19T12:09:21.691Z,2.00
2019-01-19T12:13:27.364Z,1.70
2019-01-19T12:17:33.118Z,2.00
2019-01-19T12:21:38.976Z,2.40
2019-01-19T12:25:44.750Z,2.80
2019-01-19T12:29:50.510Z,3.00
2019-01-19T12:33:56.179Z,3.00
2019-01-19T12:38:02.887Z,3.10
2019-01-19T12:42:08.593Z,3.40
2019-01-19T12:46:14.592Z,3.60
2019-01-19T12:50:24.152Z,3.70
2019-01-19T12:54:29.919Z,3.70
2019-01-19T12:58:35.653Z,3.80
2019-01-19T13:02:41.341Z,3.80
2019-01-19T13:06:47.537Z,3.80
2019-01-19T13:11:12.427Z,3.60
2019-01-19T13:15:28.553Z,3.60
2019-01-19T13:19:44.441Z,3.90
2019-01-19T13:24:18.670Z,3.80
2019-01-19T13:29:10.668Z,3.60
2019-01-19T13:33:29.377Z,3.10
2019-01-19T13:37:45.229Z,2.80
2019-01-19T13:42:25.299Z,2.40
2019-01-19T13:46:47.311Z,2.10
2019-01-19T13:51:06.358Z,2.40
2019-01-19T13:55:34.624Z,2.90
2019-01-19T13:59:53.598Z,3.30
2019-01-19T14:04:20.080Z,3.20
2019-01-19T14:08:49.196Z,3.20
2019-01-19T14:13:08.500Z,3.10
2019-01-19T14:17:43.867Z,3.20
2019-01-19T14:27:16.391Z,3.00
2019-01-19T14:31:47.357Z,3.10
2019-01-19T14:36:24.559Z,3.10
2019-01-19T14:40:54.041Z,2.80
2019-01-19T14:45:48.605Z,2.40
2019-01-19T14:50:16.594Z,2.40
2019-01-19T14:54:29.557Z,2.90
2019-01-19T14:58:51.266Z,2.80
2019-01-19T15:03:22.373Z,2.70
2019-01-19T15:07:41.602Z,2.40
2019-01-19T15:12:06.857Z,2.60
2019-01-19T15:16:48.833Z,2.60
2019-01-19T15:21:10.610Z,3.10
2019-01-19T15:25:35.610Z,2.80
2019-01-19T15:30:00.738Z,2.60
2019-01-19T15:34:28.646Z,2.80
2019-01-19T15:39:17.785Z,2.70
2019-01-19T15:43:47.028Z,2.80
2019-01-19T15:48:34.414Z,2.90
2019-01-19T15:53:00.300Z,3.00
2019-01-19T15:57:28.261Z,2.80
2019-01-19T16:02:20.333Z,2.40
2019-01-19T16:06:39.601Z,2.30
2019-01-19T16:11:04.585Z,2.70
2019-01-19T16:15:44.669Z,2.60
2019-01-19T16:20:09.305Z,2.60
2019-01-19T16:24:41.936Z,2.50
2019-01-19T16:29:12.330Z,2.40
2019-01-19T16:33:43.514Z,2.00
2019-01-19T16:38:31.275Z,2.20
2019-01-19T16:42:58.085Z,2.20
2019-01-19T16:47:35.206Z,2.30
2019-01-19T16:52:22.865Z,2.80
2019-01-19T16:56:58.413Z,2.90
2019-01-19T17:01:29.362Z,3.00
2019-01-19T17:05:45.204Z,3.00
2019-01-19T17:09:57.937Z,2.90
2019-01-19T17:14:19.918Z,2.90
2019-01-19T17:18:32.720Z,2.70
2019-01-19T17:23:00.732Z,2.60
2019-01-19T17:27:22.774Z,2.50
2019-01-19T17:31:35.998Z,2.50
2019-01-19T17:35:54.568Z,2.20
2019-01-19T17:40:52.613Z,2.40
2019-01-19T17:45:15.488Z,2.50
2019-01-19T17:49:40.654Z,2.50
2019-01-19T17:54:23.486Z,2.40
2019-01-19T17:59:04.974Z,2.20
2019-01-19T18:03:20.856Z,2.10
2019-01-19T18:07:40.007Z,2.40
2019-01-19T18:12:07.908Z,2.20
2019-01-19T18:16:37.168Z,2.20
2019-01-19T18:21:02.304Z,1.90
2019-01-19T18:25:36.322Z,1.30
2019-01-19T18:35:44.895Z,2.00
2019-01-19T18:40:49.399Z,1.20
2019-01-19T18:45:02.338Z,1.40
2019-01-19T18:49:46.888Z,1.50
2019-01-19T18:54:02.990Z,1.30
2019-01-19T18:58:18.987Z,1.50
2019-01-19T19:02:43.679Z,1.60
2019-01-19T19:07:29.966Z,1.20
2019-01-19T19:11:56.635Z,0.90
2019-01-19T19:16:25.676Z,0.90
2019-01-19T19:20:47.661Z,1.10
2019-01-19T19:25:09.591Z,1.50
2019-01-19T19:29:28.476Z,1.60
2019-01-19T19:34:04.070Z,1.30
2019-01-19T19:38:20.952Z,1.20
2019-01-19T19:43:05.178Z,1.00
2019-01-19T19:47:53.252Z,1.00
2019-01-19T19:52:02.341Z,0.80
2019-01-19T19:56:06.367Z,0.80
2019-01-19T20:00:12.860Z,0.60
2019-01-19T20:04:18.723Z,0.60
2019-01-19T20:08:24.494Z,0.50
2019-01-19T20:12:31.170Z,0.50
2019-01-19T20:16:37.042Z,0.70
2019-01-19T20:20:42.752Z,1.00
2019-01-19T20:24:48.523Z,1.10
2019-01-19T20:28:54.666Z,1.20
2019-01-19T20:33:00.437Z,1.00
2019-01-19T20:37:06.270Z,0.70
2019-01-19T20:41:11.970Z,0.90
2019-01-19T20:45:18.324Z,0.70
2019-01-19T20:49:24.030Z,0.60
2019-01-19T20:53:29.866Z,0.30
2019-01-19T20:57:35.700Z,0.70
2019-01-19T21:01:41.416Z,0.60
2019-01-19T21:05:47.123Z,0.80
2019-01-19T21:09:52.824Z,0.90
2019-01-19T21:13:58.547Z,0.70
2019-01-19T21:18:04.403Z,0.80
2019-01-19T21:22:11.224Z,1.00
2019-01-19T21:26:18.508Z,0.80
2019-01-19T21:30:24.356Z,1.00
2019-01-19T21:34:30.073Z,0.70
2019-01-19T21:38:35.766Z,1.00
2019-01-19T21:42:50.159Z,0.90
2019-01-19T21:46:55.895Z,0.90
2019-01-19T21:51:02.562Z,0.70
2019-01-19T21:55:10.373Z,0.80
2019-01-19T21:59:16.058Z,0.90
2019-01-19T22:03:21.766Z,0.80
2019-01-19T22:07:27.485Z,1.00
2019-01-19T22:11:33.181Z,1.10
2019-01-19T22:15:38.852Z,1.20
2019-01-19T22:19:44.554Z,1.30
2019-01-19T22:23:50.238Z,1.40
2019-01-19T22:27:56.036Z,1.30
2019-01-19T22:32:01.786Z,1.40
2019-01-19T22:36:07.561Z,1.10
2019-01-19T22:40:17.510Z,1.20
2019-01-19T22:44:23.145Z,1.20
2019-01-19T22:48:28.929Z,1.30
2019-01-19T22:52:49.791Z,1.40
2019-01-19T22:56:56.278Z,1.20
2019-01-19T23:01:07.140Z,1.30
2019-01-19T23:05:12.944Z,1.00
2019-01-19T23:09:18.886Z,0.90
2019-01-19T23:13:51.876Z,1.00
2019-01-19T23:17:57.579Z,0.80
2019-01-19T23:22:48.549Z,0.90
2019-01-19T23:26:55.527Z,1.00
2019-01-19T23:31:01.313Z,0.90
2019-01-19T23:35:08.937Z,0.90
2019-01-19T23:39:50.924Z,0.90
2019-01-19T23:43:56.615Z,1.00
2019-01-19T23:48:02.381Z,0.50
2019-01-19T23:52:08.129Z,0.80
2019-01-19T23:56:13.826Z,0.70
